Time,TemperatureF,DewpointF,PressureIn,WindDirection,WindDirectionDegrees,WindSpeedMPH,WindSpeedGustMPH,Humidity,HourlyPrecipIn,Conditions,Clouds,dailyrainin,SoftwareType,DateUTC
2013-07-04 00:00:00,72.6,72.6,30.25,NNE,19,0.0,0.0,100,0.00,,,0.00,Wunderground v.1.15,2013-07-04 04:00:00,
2013-07-04 00:05:00,72.6,72.6,30.25,NNE,19,0.0,0.0,100,0.00,,,0.00,Wunderground v.1.15,2013-07-04 04:05:00,
2013-07-04 00:10:00,72.5,72.5,30.25,NNE,19,0.0,0.0,100,0.00,,,0.00,Wunderground v.1.15,2013-07-04 04:10:00,
2013-07-04 00:15:00,72.4,72.4,30.25,NNE,19,0.0,0.0,100,0.00,,,0.00,Wunderground v.1.15,2013-07-04 04:15:00,
2013-07-04 00:20:00,72.3,72.3,30.25,NNE,19,0.0,0.0,100,0.00,,,0.00,Wunderground v.1.15,2013-07-04 04:20:00,
2013-07-04 00:30:00,72.2,72.2,30.26,NNE,19,0.0,0.0,100,0.00,,,0.00,Wunderground v.1.15,2013-07-04 04:30:00,
2013-07-04 00:35:00,72.1,72.1,30.26,NNE,19,0.0,0.0,100,0.00,,,0.00,Wunderground v.1.15,2013-07-04 04:35:00,
2013-07-04 00:40:00,72.0,72.0,30.25,NNE,19,0.0,0.0,100,0.00,,,0.00,Wunderground v.1.15,2013-07-04 04:40:00,
2013-07-04 00:45:00,72.0,72.0,30.26,NNE,19,0.0,0.0,100,0.00,,,0.00,Wunderground v.1.15,2013-07-04 04:45:00,
2013-07-04 00:50:00,71.9,71.9,30.26,NNE,19,0.0,0.0,100,0.00,,,0.00,Wunderground v.1.15,2013-07-04 04:50:00,
2013-07-04 00:55:00,71.9,71.9,30.26,NNE,19,0.0,0.0,100,0.00,,,0.00,Wunderground v.1.15,2013-07-04 04:55:00,
2013-07-04 01:05:00,72.1,72.1,30.26,NNE,19,0.0,0.0,100,0.00,,,0.00,Wunderground v.1.15,2013-07-04 05:05:00,
2013-07-04 01:15:00,72.1,72.1,30.26,NNE,19,0.0,0.0,100,0.00,,,0.00,Wunderground v.1.15,2013-07-04 05:15:00,
2013-07-04 01:20:00,72.1,72.1,30.26,NNE,19,0.0,0.0,100,0.00,,,0.00,Wunderground v.1.15,2013-07-04 05:20:00,
2013-07-04 01:25:00,72.1,72.1,30.26,NNE,19,0.0,0.0,100,0.00,,,0.00,Wunderground v.1.15,2013-07-04 05:25:00,
2013-07-04 01:35:00,72.1,72.1,30.26,NNE,19,0.0,0.0,100,0.00,,,0.00,Wunderground v.1.15,2013-07-04 05:35:00,
2013-07-04 01:40:00,72.1,72.1,30.26,NNE,19,0.0,0.0,100,0.00,,,0.00,Wunderground v.1.15,2013-07-04 05:40:00,
2013-07-04 01:45:00,72.1,72.1,30.26,NNE,19,0.0,0.0,100,0.00,,,0.00,Wunderground v.1.15,2013-07-04 05:45:00,
2013-07-04 01:50:00,72.2,72.2,30.25,NNE,19,0.0,0.0,100,0.00,,,0.00,Wunderground v.1.15,2013-07-04 05:50:00,
2013-07-04 01:55:00,72.4,72.4,30.25,NNE,19,0.0,0.0,100,0.00,,,0.00,Wunderground v.1.15,2013-07-04 05:55:00,
2013-07-04 02:00:00,72.6,72.6,30.25,NNE,19,0.0,0.0,100,0.00,,,0.00,Wunderground v.1.15,2013-07-04 06:00:00,
2013-07-04 02:05:00,72.8,72.8,30.26,NNE,19,0.0,0.0,100,0.00,,,0.00,Wunderground v.1.15,2013-07-04 06:05:00,
2013-07-04 02:15:00,73.1,73.1,30.25,WSW,244,0.0,0.0,100,0.00,,,0.00,Wunderground v.1.15,2013-07-04 06:15:00,
2013-07-04 02:20:00,73.3,73.3,30.25,WSW,244,0.0,0.0,100,0.00,,,0.00,Wunderground v.1.15,2013-07-04 06:20:00,
2013-07-04 02:25:00,73.4,73.4,30.25,WSW,244,0.0,0.0,100,0.00,,,0.00,Wunderground v.1.15,2013-07-04 06:25:00,
2013-07-04 02:30:00,73.4,73.4,30.25,WSW,244,0.0,0.0,100,0.00,,,0.00,Wunderground v.1.15,2013-07-04 06:30:00,
2013-07-04 02:40:00,73.5,73.5,30.25,WSW,244,0.0,0.0,100,0.00,,,0.00,Wunderground v.1.15,2013-07-04 06:40:00,
2013-07-04 02:45:00,73.6,73.6,30.24,WSW,244,0.0,0.0,100,0.00,,,0.00,Wunderground v.1.15,2013-07-04 06:45:00,
2013-07-04 02:50:00,73.6,73.6,30.25,WSW,244,0.0,0.0,100,0.00,,,0.00,Wunderground v.1.15,2013-07-04 06:50:00,
2013-07-04 02:55:00,73.7,73.7,30.25,WSW,244,0.0,0.0,100,0.00,,,0.00,Wunderground v.1.15,2013-07-04 06:55:00,
2013-07-04 03:00:00,73.7,73.7,30.25,WSW,244,0.0,0.0,100,0.00,,,0.00,Wunderground v.1.15,2013-07-04 07:00:00,
2013-07-04 03:06:00,73.7,73.7,30.25,WSW,244,0.0,0.0,100,0.00,,,0.00,Wunderground v.1.15,2013-07-04 07:06:00,
2013-07-04 03:15:00,73.8,73.8,30.25,WSW,244,0.0,0.0,100,0.00,,,0.00,Wunderground v.1.15,2013-07-04 07:15:00,
2013-07-04 03:20:00,73.8,73.8,30.25,WSW,244,0.0,0.0,100,0.00,,,0.00,Wunderground v.1.15,2013-07-04 07:20:00,
2013-07-04 03:25:00,73.8,73.8,30.25,WSW,244,0.0,0.0,100,0.00,,,0.00,Wunderground v.1.15,2013-07-04 07:25:00,
2013-07-04 03:30:00,73.8,73.8,30.25,WSW,244,0.0,0.0,100,0.00,,,0.00,Wunderground v.1.15,2013-07-04 07:30:00,
2013-07-04 03:35:00,73.8,73.8,30.25,WSW,244,0.0,0.0,100,0.00,,,0.00,Wunderground v.1.15,2013-07-04 07:35:00,
2013-07-04 03:45:00,73.8,73.8,30.25,WSW,244,0.0,0.0,100,0.00,,,0.00,Wunderground v.1.15,2013-07-04 07:45:00,
2013-07-04 03:55:00,73.8,73.8,30.24,WSW,244,0.0,0.0,100,0.00,,,0.00,Wunderground v.1.15,2013-07-04 07:55:00,
2013-07-04 04:00:00,73.8,73.8,30.24,WSW,244,0.0,0.0,100,0.00,,,0.00,Wunderground v.1.15,2013-07-04 08:00:00,
2013-07-04 04:06:00,73.8,73.8,30.24,WSW,244,0.0,0.0,100,0.00,,,0.00,Wunderground v.1.15,2013-07-04 08:06:00,
2013-07-04 04:15:00,73.7,73.7,30.24,WSW,244,0.0,0.0,100,0.00,,,0.00,Wunderground v.1.15,2013-07-04 08:15:00,
2013-07-04 04:20:00,73.7,73.7,30.25,WSW,244,0.0,0.0,100,0.00,,,0.00,Wunderground v.1.15,2013-07-04 08:20:00,
2013-07-04 04:25:00,73.6,73.6,30.24,WSW,244,0.0,0.0,100,0.00,,,0.00,Wunderground v.1.15,2013-07-04 08:25:00,
2013-07-04 04:30:00,73.6,73.6,30.25,WSW,244,0.0,0.0,100,0.00,,,0.00,Wunderground v.1.15,2013-07-04 08:30:00,
2013-07-04 04:35:00,73.6,73.6,30.25,WSW,244,0.0,0.0,100,0.00,,,0.00,Wunderground v.1.15,2013-07-04 08:35:00,
2013-07-04 04:40:00,73.5,73.5,30.25,WSW,244,0.0,0.0,100,0.00,,,0.00,Wunderground v.1.15,2013-07-04 08:40:00,
2013-07-04 04:50:00,73.6,73.6,30.25,WSW,244,0.0,0.0,100,0.00,,,0.00,Wunderground v.1.15,2013-07-04 08:50:00,
2013-07-04 04:55:00,73.6,73.6,30.25,WSW,244,0.0,0.0,100,0.00,,,0.00,Wunderground v.1.15,2013-07-04 08:55:00,
2013-07-04 05:00:00,73.6,73.6,30.25,WSW,244,0.0,0.0,100,0.00,,,0.00,Wunderground v.1.15,2013-07-04 09:00:00,
2013-07-04 05:06:00,73.5,73.5,30.25,WSW,244,0.0,0.0,100,0.00,,,0.00,Wunderground v.1.15,2013-07-04 09:06:00,
2013-07-04 05:15:00,73.5,73.5,30.25,WSW,244,0.0,0.0,100,0.00,,,0.00,Wunderground v.1.15,2013-07-04 09:15:00,
2013-07-04 05:25:00,73.3,73.3,30.24,WSW,244,0.0,0.0,100,0.00,,,0.00,Wunderground v.1.15,2013-07-04 09:25:00,
2013-07-04 05:30:00,73.3,73.3,30.25,WSW,244,0.0,0.0,100,0.00,,,0.00,Wunderground v.1.15,2013-07-04 09:30:00,
2013-07-04 05:35:00,73.1,73.1,30.25,WSW,244,0.0,0.0,100,0.00,,,0.00,Wunderground v.1.15,2013-07-04 09:35:00,
2013-07-04 05:40:00,73.1,73.1,30.25,WSW,244,0.0,0.0,100,0.00,,,0.00,Wunderground v.1.15,2013-07-04 09:40:00,
2013-07-04 05:45:00,73.0,73.0,30.25,WSW,244,0.0,0.0,100,0.00,,,0.00,Wunderground v.1.15,2013-07-04 09:45:00,
2013-07-04 05:50:00,72.9,72.9,30.25,WSW,244,0.0,0.0,100,0.00,,,0.00,Wunderground v.1.15,2013-07-04 09:50:00,
2013-07-04 06:00:00,72.8,72.8,30.25,WSW,244,0.0,0.0,100,0.00,,,0.00,Wunderground v.1.15,2013-07-04 10:00:00,
2013-07-04 06:05:00,72.9,72.9,30.26,WSW,244,0.0,0.0,100,0.00,,,0.00,Wunderground v.1.15,2013-07-04 10:05:00,
2013-07-04 06:15:00,73.0,73.0,30.26,WSW,244,0.0,0.0,100,0.00,,,0.00,Wunderground v.1.15,2013-07-04 10:15:00,
2013-07-04 06:20:00,73.1,73.1,30.26,WSW,244,0.0,0.0,100,0.00,,,0.00,Wunderground v.1.15,2013-07-04 10:20:00,
2013-07-04 06:30:00,73.3,73.3,30.26,WSW,244,0.0,0.0,100,0.00,,,0.00,Wunderground v.1.15,2013-07-04 10:30:00,
2013-07-04 06:35:00,73.3,73.3,30.26,WSW,244,0.0,0.0,100,0.00,,,0.00,Wunderground v.1.15,2013-07-04 10:35:00,
2013-07-04 06:40:00,73.4,73.4,30.26,WSW,244,0.0,0.0,100,0.00,,,0.00,Wunderground v.1.15,2013-07-04 10:40:00,
2013-07-04 06:45:00,73.4,73.4,30.26,WSW,244,0.0,0.0,100,0.00,,,0.00,Wunderground v.1.15,2013-07-04 10:45:00,
2013-07-04 06:50:00,73.5,73.5,30.27,WSW,244,0.0,0.0,100,0.00,,,0.00,Wunderground v.1.15,2013-07-04 10:50:00,
2013-07-04 06:55:00,73.5,73.5,30.27,WSW,244,0.0,0.0,100,0.00,,,0.00,Wunderground v.1.15,2013-07-04 10:55:00,
2013-07-04 07:05:00,73.6,73.6,30.27,WSW,244,0.0,0.0,100,0.00,,,0.00,Wunderground v.1.15,2013-07-04 11:05:00,
2013-07-04 07:15:00,73.6,73.6,30.27,WSW,244,0.0,0.0,100,0.00,,,0.00,Wunderground v.1.15,2013-07-04 11:15:00,
2013-07-04 07:20:00,73.7,73.7,30.27,WSW,244,0.0,0.0,100,0.00,,,0.00,Wunderground v.1.15,2013-07-04 11:20:00,
2013-07-04 07:25:00,73.8,73.8,30.28,WSW,244,0.0,0.0,100,0.00,,,0.00,Wunderground v.1.15,2013-07-04 11:25:00,
2013-07-04 07:35:00,74.0,74.0,30.28,WSW,244,0.0,0.0,100,0.00,,,0.00,Wunderground v.1.15,2013-07-04 11:35:00,
2013-07-04 07:40:00,74.1,74.1,30.28,WSW,244,0.0,0.0,100,0.00,,,0.00,Wunderground v.1.15,2013-07-04 11:40:00,
2013-07-04 07:45:00,74.2,74.2,30.28,West,266,0.0,0.0,100,0.00,,,0.00,Wunderground v.1.15,2013-07-04 11:45:00,
2013-07-04 07:50:00,74.2,74.2,30.28,West,259,0.0,0.0,100,0.00,,,0.00,Wunderground v.1.15,2013-07-04 11:50:00,
2013-07-04 07:55:00,74.3,74.3,30.28,West,261,0.0,0.0,100,0.00,,,0.00,Wunderground v.1.15,2013-07-04 11:55:00,
2013-07-04 08:00:00,74.3,74.3,30.28,West,261,0.0,0.0,100,0.00,,,0.00,Wunderground v.1.15,2013-07-04 12:00:00,
2013-07-04 08:05:00,74.3,74.3,30.28,West,261,0.0,0.0,100,0.00,,,0.00,Wunderground v.1.15,2013-07-04 12:05:00,
2013-07-04 08:15:00,74.5,74.5,30.28,West,261,0.0,0.0,100,0.00,,,0.00,Wunderground v.1.15,2013-07-04 12:15:00,
2013-07-04 08:20:00,74.5,74.5,30.28,West,261,0.0,0.0,100,0.00,,,0.00,Wunderground v.1.15,2013-07-04 12:20:00,
2013-07-04 08:25:00,74.6,74.6,30.28,West,261,0.0,0.0,100,0.00,,,0.00,Wunderground v.1.15,2013-07-04 12:25:00,
2013-07-04 08:30:00,74.6,74.6,30.28,West,261,0.0,0.0,100,0.00,,,0.00,Wunderground v.1.15,2013-07-04 12:30:00,
2013-07-04 08:40:00,74.6,74.6,30.28,West,261,0.0,0.0,100,0.00,,,0.00,Wunderground v.1.15,2013-07-04 12:40:00,
2013-07-04 08:45:00,74.8,74.8,30.29,West,261,0.0,0.0,100,0.00,,,0.00,Wunderground v.1.15,2013-07-04 12:45:00,
2013-07-04 08:50:00,74.9,74.9,30.29,West,261,0.0,0.0,100,0.00,,,0.00,Wunderground v.1.15,2013-07-04 12:50:00,
2013-07-04 08:55:00,75.0,75.0,30.29,West,261,0.0,0.0,100,0.00,,,0.00,Wunderground v.1.15,2013-07-04 12:55:00,
2013-07-04 09:00:00,74.9,74.9,30.29,West,261,0.0,0.0,100,0.00,,,0.00,Wunderground v.1.15,2013-07-04 13:00:00,
2013-07-04 09:06:00,74.9,74.9,30.28,West,261,0.0,0.0,100,0.00,,,0.00,Wunderground v.1.15,2013-07-04 13:06:00,
2013-07-04 09:15:00,75.0,75.0,30.28,West,261,0.0,0.0,100,0.00,,,0.00,Wunderground v.1.15,2013-07-04 13:15:00,
2013-07-04 09:20:00,74.9,74.9,30.28,West,261,0.0,0.0,100,0.00,,,0.00,Wunderground v.1.15,2013-07-04 13:20:00,
2013-07-04 09:25:00,74.9,74.9,30.28,West,261,0.0,0.0,100,0.00,,,0.00,Wunderground v.1.15,2013-07-04 13:25:00,
2013-07-04 09:30:00,74.9,74.9,30.29,West,261,0.0,0.0,100,0.00,,,0.00,Wunderground v.1.15,2013-07-04 13:30:00,
2013-07-04 09:35:00,74.8,74.8,30.28,West,261,0.0,0.0,100,0.00,,,0.00,Wunderground v.1.15,2013-07-04 13:35:00,
2013-07-04 09:45:00,74.9,74.9,30.28,West,261,0.0,0.0,100,0.00,,,0.00,Wunderground v.1.15,2013-07-04 13:45:00,
2013-07-04 09:50:00,75.0,75.0,30.28,West,261,0.0,0.0,100,0.00,,,0.00,Wunderground v.1.15,2013-07-04 13:50:00,
2013-07-04 09:55:00,75.1,75.1,30.28,West,261,0.0,0.0,100,0.00,,,0.00,Wunderground v.1.15,2013-07-04 13:55:00,
2013-07-04 10:00:00,75.2,75.2,30.28,West,261,0.0,0.0,100,0.00,,,0.00,Wunderground v.1.15,2013-07-04 14:00:00,
2013-07-04 10:06:00,75.2,75.2,30.28,West,261,0.0,0.0,100,0.00,,,0.00,Wunderground v.1.15,2013-07-04 14:06:00,
2013-07-04 10:15:00,74.9,74.9,30.28,West,261,0.0,0.0,100,0.00,,,0.00,Wunderground v.1.15,2013-07-04 14:15:00,
2013-07-04 10:20:00,74.9,74.9,30.28,West,261,0.0,0.0,100,0.00,,,0.00,Wunderground v.1.15,2013-07-04 14:20:00,
2013-07-04 10:25:00,75.0,75.0,30.28,West,261,0.0,0.0,100,0.00,,,0.00,Wunderground v.1.15,2013-07-04 14:25:00,
2013-07-04 10:30:00,75.2,75.2,30.28,West,261,0.0,0.0,100,0.00,,,0.00,Wunderground v.1.15,2013-07-04 14:30:00,
2013-07-04 10:35:00,75.4,75.4,30.28,West,261,0.0,0.0,100,0.00,,,0.00,Wunderground v.1.15,2013-07-04 14:35:00,
2013-07-04 10:40:00,75.7,75.7,30.28,West,261,0.0,0.0,100,0.00,,,0.00,Wunderground v.1.15,2013-07-04 14:40:00,
2013-07-04 10:50:00,75.8,75.8,30.28,West,261,0.0,0.0,100,0.00,,,0.00,Wunderground v.1.15,2013-07-04 14:50:00,
2013-07-04 10:55:00,75.9,75.9,30.28,West,261,0.0,0.0,100,0.00,,,0.00,Wunderground v.1.15,2013-07-04 14:55:00,
2013-07-04 11:00:00,75.8,75.8,30.28,West,261,0.0,0.0,100,0.00,,,0.00,Wunderground v.1.15,2013-07-04 15:00:00,
2013-07-04 11:06:00,75.8,75.8,30.27,West,261,0.0,0.0,100,0.00,,,0.00,Wunderground v.1.15,2013-07-04 15:06:00,
2013-07-04 11:15:00,76.2,76.2,30.27,West,261,0.0,0.0,100,0.00,,,0.00,Wunderground v.1.15,2013-07-04 15:15:00,
2013-07-04 11:25:00,76.9,76.9,30.27,WNW,297,0.0,0.0,100,0.00,,,0.00,Wunderground v.1.15,2013-07-04 15:25:00,
2013-07-04 11:30:00,77.1,76.8,30.27,WNW,297,0.0,0.0,99,0.00,,,0.00,Wunderground v.1.15,2013-07-04 15:30:00,
2013-07-04 11:35:00,77.5,76.9,30.27,WNW,292,0.0,0.0,98,0.00,,,0.00,Wunderground v.1.15,2013-07-04 15:35:00,
2013-07-04 11:40:00,77.8,77.2,30.27,WNW,292,0.0,0.0,98,0.00,,,0.00,Wunderground v.1.15,2013-07-04 15:40:00,
2013-07-04 11:45:00,78.4,77.5,30.27,WNW,292,0.0,0.0,97,0.00,,,0.00,Wunderground v.1.15,2013-07-04 15:45:00,
2013-07-04 11:55:00,78.9,77.0,30.27,WNW,292,0.0,0.0,94,0.00,,,0.00,Wunderground v.1.15,2013-07-04 15:55:00,
2013-07-04 12:00:00,79.3,77.1,30.27,WNW,292,0.0,0.0,93,0.00,,,0.00,Wunderground v.1.15,2013-07-04 16:00:00,
2013-07-04 12:06:00,79.5,76.6,30.27,WNW,292,0.0,0.0,91,0.00,,,0.00,Wunderground v.1.15,2013-07-04 16:06:00,
2013-07-04 12:15:00,80.6,77.1,30.27,West,271,0.0,2.0,89,0.00,,,0.00,Wunderground v.1.15,2013-07-04 16:15:00,
2013-07-04 12:20:00,81.0,76.8,30.27,West,271,0.0,0.0,87,0.00,,,0.00,Wunderground v.1.15,2013-07-04 16:20:00,
2013-07-04 12:30:00,81.7,77.1,30.26,West,269,0.0,0.0,86,0.00,,,0.00,Wunderground v.1.15,2013-07-04 16:30:00,
2013-07-04 12:35:00,82.0,77.0,30.27,West,269,0.0,0.0,85,0.00,,,0.00,Wunderground v.1.15,2013-07-04 16:35:00,
2013-07-04 12:45:00,82.9,77.2,30.27,West,269,0.0,0.0,83,0.00,,,0.00,Wunderground v.1.15,2013-07-04 16:45:00,
2013-07-04 12:50:00,83.3,77.2,30.27,West,269,0.0,0.0,82,0.00,,,0.00,Wunderground v.1.15,2013-07-04 16:50:00,
2013-07-04 13:00:00,83.7,76.5,30.26,South,181,0.0,0.0,79,0.00,,,0.00,Wunderground v.1.15,2013-07-04 17:00:00,
2013-07-04 13:06:00,83.8,77.3,30.26,South,181,0.0,0.0,81,0.00,,,0.00,Wunderground v.1.15,2013-07-04 17:06:00,
2013-07-04 13:15:00,84.2,77.4,30.26,South,184,0.0,0.0,80,0.00,,,0.00,Wunderground v.1.15,2013-07-04 17:15:00,
2013-07-04 13:25:00,84.8,77.2,30.25,South,184,0.0,0.0,78,0.00,,,0.00,Wunderground v.1.15,2013-07-04 17:25:00,
2013-07-04 13:30:00,84.8,77.6,30.25,South,184,0.0,0.0,79,0.00,,,0.00,Wunderground v.1.15,2013-07-04 17:30:00,
2013-07-04 13:35:00,84.6,77.0,30.25,South,184,0.0,0.0,78,0.00,,,0.00,Wunderground v.1.15,2013-07-04 17:35:00,
2013-07-04 13:40:00,84.3,76.7,30.25,South,184,0.0,0.0,78,0.00,,,0.00,Wunderground v.1.15,2013-07-04 17:40:00,
2013-07-04 13:45:00,84.0,76.4,30.25,South,184,0.0,0.0,78,0.00,,,0.00,Wunderground v.1.15,2013-07-04 17:45:00,
2013-07-04 13:50:00,84.1,76.9,30.25,SSW,211,0.0,0.0,79,0.00,,,0.00,Wunderground v.1.15,2013-07-04 17:50:00,
2013-07-04 13:55:00,84.5,77.3,30.25,WSW,250,0.0,0.0,79,0.00,,,0.00,Wunderground v.1.15,2013-07-04 17:55:00,
2013-07-04 14:06:00,85.4,77.0,30.24,North,355,0.0,2.0,76,0.00,,,0.00,Wunderground v.1.15,2013-07-04 18:06:00,
2013-07-04 14:15:00,85.7,76.5,30.24,North,355,0.0,1.0,74,0.00,,,0.00,Wunderground v.1.15,2013-07-04 18:15:00,
2013-07-04 14:20:00,85.9,76.6,30.24,North,355,0.0,0.0,74,0.00,,,0.00,Wunderground v.1.15,2013-07-04 18:20:00,
2013-07-04 14:25:00,85.9,76.6,30.24,North,355,0.0,0.0,74,0.00,,,0.00,Wunderground v.1.15,2013-07-04 18:25:00,
2013-07-04 14:30:00,86.0,75.9,30.23,North,355,0.0,0.0,72,0.00,,,0.00,Wunderground v.1.15,2013-07-04 18:30:00,
2013-07-04 14:35:00,86.3,75.4,30.23,North,355,0.0,0.0,70,0.00,,,0.00,Wunderground v.1.15,2013-07-04 18:35:00,
2013-07-04 14:40:00,86.4,76.7,30.23,East,101,0.0,0.0,73,0.00,,,0.00,Wunderground v.1.15,2013-07-04 18:40:00,
2013-07-04 14:45:00,86.6,76.1,30.23,ESE,102,0.0,1.0,71,0.00,,,0.00,Wunderground v.1.15,2013-07-04 18:45:00,
2013-07-04 14:50:00,86.7,76.2,30.23,East,101,0.0,0.0,71,0.00,,,0.00,Wunderground v.1.15,2013-07-04 18:50:00,
2013-07-04 14:55:00,86.9,76.8,30.23,NE,34,0.0,0.0,72,0.00,,,0.00,Wunderground v.1.15,2013-07-04 18:55:00,
2013-07-04 15:00:00,87.1,75.7,30.22,WNW,288,0.0,0.0,69,0.00,,,0.00,Wunderground v.1.15,2013-07-04 19:00:00,
2013-07-04 15:06:00,87.2,75.3,30.22,North,360,0.0,0.0,68,0.00,,,0.00,Wunderground v.1.15,2013-07-04 19:06:00,
2013-07-04 15:15:00,87.3,75.0,30.22,SE,142,0.0,0.0,67,0.00,,,0.00,Wunderground v.1.15,2013-07-04 19:15:00,
2013-07-04 15:20:00,87.4,74.6,30.22,SE,142,0.0,0.0,66,0.00,,,0.00,Wunderground v.1.15,2013-07-04 19:20:00,
2013-07-04 15:25:00,87.5,74.3,30.22,SE,142,0.0,0.0,65,0.00,,,0.00,Wunderground v.1.15,2013-07-04 19:25:00,
2013-07-04 15:30:00,87.7,74.5,30.22,WSW,243,0.0,0.0,65,0.00,,,0.00,Wunderground v.1.15,2013-07-04 19:30:00,
2013-07-04 15:35:00,87.9,75.6,30.21,WNW,282,0.0,0.0,67,0.00,,,0.00,Wunderground v.1.15,2013-07-04 19:35:00,
2013-07-04 15:40:00,87.8,75.0,30.21,South,172,0.0,0.0,66,0.00,,,0.00,Wunderground v.1.15,2013-07-04 19:40:00,
2013-07-04 15:45:00,87.8,74.6,30.21,WSW,258,0.0,0.0,65,0.00,,,0.00,Wunderground v.1.15,2013-07-04 19:45:00,
2013-07-04 15:50:00,87.9,75.1,30.21,WSW,258,0.0,0.0,66,0.00,,,0.00,Wunderground v.1.15,2013-07-04 19:50:00,
2013-07-04 15:55:00,88.0,75.2,30.21,WSW,258,0.0,0.0,66,0.00,,,0.00,Wunderground v.1.15,2013-07-04 19:55:00,
2013-07-04 16:00:00,88.3,75.0,30.21,South,187,0.0,0.0,65,0.00,,,0.00,Wunderground v.1.15,2013-07-04 20:00:00,
2013-07-04 16:06:00,88.1,75.3,30.21,South,169,0.0,0.0,66,0.00,,,0.00,Wunderground v.1.15,2013-07-04 20:06:00,
2013-07-04 16:15:00,88.4,76.0,30.21,SSE,147,0.0,0.0,67,0.00,,,0.00,Wunderground v.1.15,2013-07-04 20:15:00,
2013-07-04 16:20:00,88.4,75.6,30.21,SSE,147,0.0,0.0,66,0.00,,,0.00,Wunderground v.1.15,2013-07-04 20:20:00,
2013-07-04 16:25:00,88.3,75.5,30.20,SE,146,0.0,0.0,66,0.00,,,0.00,Wunderground v.1.15,2013-07-04 20:25:00,
2013-07-04 16:30:00,88.3,76.8,30.20,SSE,147,0.0,0.0,69,0.00,,,0.00,Wunderground v.1.15,2013-07-04 20:30:00,
2013-07-04 16:35:00,88.0,75.2,30.20,SSE,147,0.0,0.0,66,0.00,,,0.00,Wunderground v.1.15,2013-07-04 20:35:00,
2013-07-04 16:40:00,87.8,75.5,30.20,SSE,147,0.0,0.0,67,0.00,,,0.00,Wunderground v.1.15,2013-07-04 20:40:00,
2013-07-04 16:50:00,87.8,77.2,30.20,SE,144,0.0,0.0,71,0.00,,,0.00,Wunderground v.1.15,2013-07-04 20:50:00,
2013-07-04 16:55:00,87.9,77.7,30.20,SE,144,0.0,0.0,72,0.00,,,0.00,Wunderground v.1.15,2013-07-04 20:55:00,
2013-07-04 17:00:00,88.1,78.3,30.20,WNW,283,0.0,0.0,73,0.00,,,0.00,Wunderground v.1.15,2013-07-04 21:00:00,
2013-07-04 17:05:00,88.1,78.3,30.20,WNW,283,0.0,0.0,73,0.00,,,0.00,Wunderground v.1.15,2013-07-04 21:05:00,
2013-07-04 17:15:00,87.9,77.3,30.20,NNE,19,0.0,0.0,71,0.00,,,0.00,Wunderground v.1.15,2013-07-04 21:15:00,
2013-07-04 17:25:00,87.4,77.7,30.20,North,9,0.0,0.0,73,0.00,,,0.00,Wunderground v.1.15,2013-07-04 21:25:00,
2013-07-04 17:30:00,87.5,78.2,30.20,North,5,0.0,0.0,74,0.00,,,0.00,Wunderground v.1.15,2013-07-04 21:30:00,
2013-07-04 17:35:00,87.6,78.3,30.20,West,272,0.0,0.0,74,0.00,,,0.00,Wunderground v.1.15,2013-07-04 21:35:00,
2013-07-04 17:40:00,87.6,78.3,30.20,West,272,0.0,0.0,74,0.00,,,0.00,Wunderground v.1.15,2013-07-04 21:40:00,
2013-07-04 17:45:00,87.4,77.7,30.19,West,272,0.0,0.0,73,0.00,,,0.00,Wunderground v.1.15,2013-07-04 21:45:00,
2013-07-04 17:55:00,87.2,77.5,30.19,ENE,74,0.0,0.0,73,0.00,,,0.00,Wunderground v.1.15,2013-07-04 21:55:00,
2013-07-04 18:00:00,86.9,77.6,30.19,ENE,74,0.0,0.0,74,0.00,,,0.00,Wunderground v.1.15,2013-07-04 22:00:00,
2013-07-04 18:05:00,86.4,77.5,30.19,NNW,335,0.0,0.0,75,0.00,,,0.00,Wunderground v.1.15,2013-07-04 22:05:00,
2013-07-04 18:15:00,85.2,77.6,30.19,NNW,335,0.0,0.0,78,0.00,,,0.00,Wunderground v.1.15,2013-07-04 22:15:00,
2013-07-04 18:20:00,84.6,77.7,30.19,NNW,335,0.0,0.0,80,0.00,,,0.00,Wunderground v.1.15,2013-07-04 22:20:00,
2013-07-04 18:30:00,82.5,74.9,30.20,SW,231,0.0,0.0,78,0.00,,,0.00,Wunderground v.1.15,2013-07-04 22:30:00,
2013-07-04 18:35:00,81.9,75.5,30.19,SW,231,0.0,0.0,81,0.00,,,0.00,Wunderground v.1.15,2013-07-04 22:35:00,
2013-07-04 18:40:00,81.7,75.7,30.20,SW,231,0.0,0.0,82,0.00,,,0.00,Wunderground v.1.15,2013-07-04 22:40:00,
2013-07-04 18:45:00,81.7,76.0,30.20,SW,231,0.0,0.0,83,0.00,,,0.00,Wunderground v.1.15,2013-07-04 22:45:00,
2013-07-04 18:50:00,81.4,76.1,30.20,SW,231,0.0,0.0,84,0.00,,,0.00,Wunderground v.1.15,2013-07-04 22:50:00,
2013-07-04 19:00:00,81.0,76.1,30.20,SW,231,0.0,0.0,85,0.00,,,0.00,Wunderground v.1.15,2013-07-04 23:00:00,
2013-07-04 19:05:00,80.8,76.6,30.20,SW,231,0.0,0.0,87,0.00,,,0.00,Wunderground v.1.15,2013-07-04 23:05:00,
2013-07-04 19:15:00,80.9,77.0,30.20,SW,231,0.0,0.0,88,0.00,,,0.00,Wunderground v.1.15,2013-07-04 23:15:00,
2013-07-04 19:20:00,81.1,76.9,30.20,SW,231,0.0,0.0,87,0.00,,,0.00,Wunderground v.1.15,2013-07-04 23:20:00,
2013-07-04 19:25:00,81.3,76.7,30.20,SW,231,0.0,0.0,86,0.00,,,0.00,Wunderground v.1.15,2013-07-04 23:25:00,
2013-07-04 19:35:00,81.8,76.5,30.20,SW,231,0.0,0.0,84,0.00,,,0.00,Wunderground v.1.15,2013-07-04 23:35:00,
2013-07-04 19:40:00,81.9,76.9,30.20,SW,231,0.0,0.0,85,0.00,,,0.00,Wunderground v.1.15,2013-07-04 23:40:00,
2013-07-04 19:45:00,81.9,76.6,30.21,SW,231,0.0,0.0,84,0.00,,,0.00,Wunderground v.1.15,2013-07-04 23:45:00,
2013-07-04 19:50:00,81.8,76.5,30.21,SW,231,0.0,0.0,84,0.00,,,0.00,Wunderground v.1.15,2013-07-04 23:50:00,
2013-07-04 19:55:00,81.6,76.3,30.22,SW,234,0.0,0.0,84,0.00,,,0.00,Wunderground v.1.15,2013-07-04 23:55:00,
2013-07-04 20:05:00,81.1,75.8,30.21,SW,234,0.0,0.0,84,0.00,,,0.00,Wunderground v.1.15,2013-07-05 00:05:00,
2013-07-04 20:15:00,80.6,76.0,30.22,SW,234,0.0,0.0,86,0.00,,,0.00,Wunderground v.1.15,2013-07-05 00:15:00,
2013-07-04 20:20:00,80.3,75.7,30.22,SW,234,0.0,0.0,86,0.00,,,0.00,Wunderground v.1.15,2013-07-05 00:20:00,
2013-07-04 20:25:00,79.9,75.3,30.22,SW,234,0.0,0.0,86,0.00,,,0.00,Wunderground v.1.15,2013-07-05 00:25:00,
2013-07-04 20:30:00,79.6,75.0,30.22,SW,234,0.0,0.0,86,0.00,,,0.00,Wunderground v.1.15,2013-07-05 00:30:00,
2013-07-04 20:40:00,79.1,74.9,30.22,SW,234,0.0,0.0,87,0.00,,,0.00,Wunderground v.1.15,2013-07-05 00:40:00,
2013-07-04 20:45:00,78.7,74.5,30.22,SW,234,0.0,0.0,87,0.00,,,0.00,Wunderground v.1.15,2013-07-05 00:45:00,
2013-07-04 20:50:00,78.6,74.4,30.22,SW,234,0.0,0.0,87,0.00,,,0.00,Wunderground v.1.15,2013-07-05 00:50:00,
2013-07-04 20:55:00,78.3,74.1,30.22,SW,234,0.0,0.0,87,0.00,,,0.00,Wunderground v.1.15,2013-07-05 00:55:00,
2013-07-04 21:00:00,78.1,73.9,30.22,SW,234,0.0,0.0,87,0.00,,,0.00,Wunderground v.1.15,2013-07-05 01:00:00,
2013-07-04 21:05:00,77.8,74.0,30.22,SW,234,0.0,0.0,88,0.00,,,0.00,Wunderground v.1.15,2013-07-05 01:05:00,
2013-07-04 21:15:00,77.3,73.5,30.23,SW,234,0.0,0.0,88,0.00,,,0.00,Wunderground v.1.15,2013-07-05 01:15:00,
2013-07-04 21:20:00,77.2,73.4,30.23,WSW,246,0.0,0.0,88,0.00,,,0.00,Wunderground v.1.15,2013-07-05 01:20:00,
2013-07-04 21:25:00,77.1,73.3,30.23,WSW,246,0.0,0.0,88,0.00,,,0.00,Wunderground v.1.15,2013-07-05 01:25:00,
2013-07-04 21:30:00,76.9,73.1,30.23,WSW,246,0.0,0.0,88,0.00,,,0.00,Wunderground v.1.15,2013-07-05 01:30:00,
2013-07-04 21:35:00,76.7,72.5,30.23,WSW,246,0.0,0.0,87,0.00,,,0.00,Wunderground v.1.15,2013-07-05 01:35:00,
2013-07-04 21:45:00,76.6,72.8,30.24,WSW,246,0.0,0.0,88,0.00,,,0.00,Wunderground v.1.15,2013-07-05 01:45:00,
2013-07-04 21:50:00,76.4,72.6,30.24,WSW,246,0.0,0.0,88,0.00,,,0.00,Wunderground v.1.15,2013-07-05 01:50:00,
2013-07-04 21:55:00,76.3,72.5,30.24,WSW,246,0.0,0.0,88,0.00,,,0.00,Wunderground v.1.15,2013-07-05 01:55:00,
2013-07-04 22:00:00,76.2,72.7,30.25,WSW,246,0.0,0.0,89,0.00,,,0.00,Wunderground v.1.15,2013-07-05 02:00:00,
2013-07-04 22:05:00,76.0,72.5,30.25,WSW,246,0.0,0.0,89,0.00,,,0.00,Wunderground v.1.15,2013-07-05 02:05:00,
2013-07-04 22:15:00,75.7,72.2,30.25,WSW,246,0.0,0.0,89,0.00,,,0.00,Wunderground v.1.15,2013-07-05 02:15:00,
2013-07-04 22:20:00,75.5,72.0,30.25,WSW,246,0.0,0.0,89,0.00,,,0.00,Wunderground v.1.15,2013-07-05 02:20:00,
2013-07-04 22:25:00,75.3,71.8,30.25,WSW,246,0.0,0.0,89,0.00,,,0.00,Wunderground v.1.15,2013-07-05 02:25:00,
2013-07-04 22:30:00,75.2,71.7,30.26,WSW,246,0.0,0.0,89,0.00,,,0.00,Wunderground v.1.15,2013-07-05 02:30:00,
2013-07-04 22:35:00,75.1,72.0,30.25,WSW,246,0.0,0.0,90,0.00,,,0.00,Wunderground v.1.15,2013-07-05 02:35:00,
2013-07-04 22:40:00,74.9,72.1,30.25,WSW,246,0.0,0.0,91,0.00,,,0.00,Wunderground v.1.15,2013-07-05 02:40:00,
2013-07-04 22:50:00,74.5,71.7,30.25,WSW,246,0.0,0.0,91,0.00,,,0.00,Wunderground v.1.15,2013-07-05 02:50:00,
2013-07-04 22:55:00,74.4,71.9,30.25,WSW,246,0.0,0.0,92,0.00,,,0.00,Wunderground v.1.15,2013-07-05 02:55:00,
2013-07-04 23:00:00,74.2,71.7,30.25,WSW,246,0.0,0.0,92,0.00,,,0.00,Wunderground v.1.15,2013-07-05 03:00:00,
2013-07-04 23:05:00,74.1,71.6,30.25,WSW,246,0.0,0.0,92,0.00,,,0.00,Wunderground v.1.15,2013-07-05 03:05:00,
2013-07-04 23:15:00,74.0,71.8,30.25,WSW,246,0.0,0.0,93,0.00,,,0.00,Wunderground v.1.15,2013-07-05 03:15:00,
2013-07-04 23:20:00,73.9,71.7,30.25,WSW,246,0.0,0.0,93,0.00,,,0.00,Wunderground v.1.15,2013-07-05 03:20:00,
2013-07-04 23:25:00,73.9,71.7,30.25,WSW,246,0.0,0.0,93,0.00,,,0.00,Wunderground v.1.15,2013-07-05 03:25:00,
2013-07-04 23:30:00,73.9,71.7,30.25,WSW,246,0.0,0.0,93,0.00,,,0.00,Wunderground v.1.15,2013-07-05 03:30:00,
2013-07-04 23:35:00,73.8,71.6,30.25,WSW,246,0.0,0.0,93,0.00,,,0.00,Wunderground v.1.15,2013-07-05 03:35:00,
2013-07-04 23:40:00,73.9,71.7,30.25,WSW,246,0.0,0.0,93,0.00,,,0.00,Wunderground v.1.15,2013-07-05 03:40:00,
2013-07-04 23:45:00,73.9,71.7,30.26,WSW,246,0.0,0.0,93,0.00,,,0.00,Wunderground v.1.15,2013-07-05 03:45:00,
2013-07-04 23:55:00,73.9,71.7,30.26,WSW,246,0.0,0.0,93,0.00,,,0.00,Wunderground v.1.15,2013-07-05 03:55:00,